Time;durP1;ratioP1;P1;durP2;ratioP2;P2;SDS_P1;SDS_P2;PMS_P1;PMS_P2;Temp;Humidity;BMP_temperature;BMP_pressure;BME280_temperature;BME280_humidity;BME280_pressure;Samples;Min_cycle;Max_cycle;Signal;HPM_P1;HPM_P2
2021/05/21 00:01:40;;;;;;;5.87;1.80;;;;;;;;;;5117179;28;20450;-51
2021/05/21 00:04:06;;;;;;;6.73;2.10;;;;;;;;;;5116942;28;20513;-55
2021/05/21 00:06:50;;;;;;;3.20;2.03;;;;;;;;;;5110562;28;20452;-55
2021/05/21 00:09:17;;;;;;;3.30;2.40;;;;;;;;;;5080642;28;20480;-53
2021/05/21 00:11:44;;;;;;;4.43;1.90;;;;;;;;;;5076134;28;20460;-58
2021/05/21 00:14:39;;;;;;;3.03;1.40;;;;;;;;;;5074868;28;20465;-53
2021/05/21 00:17:06;;;;;;;4.70;1.90;;;;;;;;;;5087010;28;20491;-59
2021/05/21 00:19:33;;;;;;;19.17;15.60;;;;;;;;;;5096032;28;20460;-50
2021/05/21 00:22:03;;;;;;;4.70;2.63;;;;;;;;;;5096368;28;20586;-58
2021/05/21 00:24:30;;;;;;;6.13;3.10;;;;;;;;;;5095757;28;20480;-61
2021/05/21 00:26:57;;;;;;;14.17;7.03;;;;;;;;;;5096117;28;20455;-56
2021/05/21 00:29:55;;;;;;;3.07;1.40;;;;;;;;;;5096375;28;20456;-59
2021/05/21 00:32:22;;;;;;;3.10;1.73;;;;;;;;;;5095733;28;20444;-55
2021/05/21 00:34:49;;;;;;;3.33;1.30;;;;;;;;;;5095781;28;20553;-56
2021/05/21 00:37:22;;;;;;;4.00;1.87;;;;;;;;;;5096334;28;20452;-51
2021/05/21 00:39:51;;;;;;;3.37;1.63;;;;;;;;;;5112256;28;20459;-54
2021/05/21 00:42:18;;;;;;;3.60;1.17;;;;;;;;;;5116403;28;20412;-54
2021/05/21 00:44:53;;;;;;;2.27;1.10;;;;;;;;;;5116223;28;20491;-54
2021/05/21 00:47:20;;;;;;;3.43;1.23;;;;;;;;;;5115997;28;20445;-53
2021/05/21 00:49:47;;;;;;;5.70;1.60;;;;;;;;;;5116283;28;20521;-57
2021/05/21 00:52:27;;;;;;;5.00;1.60;;;;;;;;;;5116063;28;20463;-54
2021/05/21 00:54:54;;;;;;;2.50;1.30;;;;;;;;;;5116353;28;20485;-61
2021/05/21 00:57:21;;;;;;;2.43;1.17;;;;;;;;;;5116240;28;20459;-56
2021/05/21 00:59:55;;;;;;;3.13;1.53;;;;;;;;;;5116309;28;20506;-54
2021/05/21 01:02:22;;;;;;;2.70;1.20;;;;;;;;;;5108692;28;20451;-54
2021/05/21 01:04:51;;;;;;;3.53;1.20;;;;;;;;;;5095228;28;20480;-57
2021/05/21 01:07:30;;;;;;;6.73;1.50;;;;;;;;;;5100802;28;20510;-57
2021/05/21 01:09:57;;;;;;;3.00;1.13;;;;;;;;;;5105046;28;20439;-57
2021/05/21 01:12:24;;;;;;;2.53;1.00;;;;;;;;;;5095536;28;20448;-52
2021/05/21 01:14:52;;;;;;;5.00;1.20;;;;;;;;;;5095579;28;20487;-56
2021/05/21 01:17:19;;;;;;;2.90;1.33;;;;;;;;;;5095910;28;20544;-50
2021/05/21 01:19:46;;;;;;;3.40;1.10;;;;;;;;;;5095913;28;20460;-53
2021/05/21 01:22:15;;;;;;;4.30;1.87;;;;;;;;;;5095397;28;20871;-55
2021/05/21 01:24:42;;;;;;;3.97;1.23;;;;;;;;;;5095575;28;20742;-57
2021/05/21 01:27:20;;;;;;;3.73;1.40;;;;;;;;;;5098487;28;20486;-53
2021/05/21 01:29:47;;;;;;;4.63;1.50;;;;;;;;;;5099468;28;20463;-52
2021/05/21 01:32:14;;;;;;;2.60;1.23;;;;;;;;;;5099543;28;20479;-52
2021/05/21 01:34:40;;;;;;;3.00;1.47;;;;;;;;;;5099354;28;20455;-56
2021/05/21 01:37:14;;;;;;;6.30;1.47;;;;;;;;;;5099609;28;20448;-59
2021/05/21 01:39:41;;;;;;;4.33;1.27;;;;;;;;;;5099644;28;20444;-54
2021/05/21 01:42:21;;;;;;;3.27;1.10;;;;;;;;;;5098999;28;20432;-55
2021/05/21 01:44:51;;;;;;;6.00;1.20;;;;;;;;;;5099018;28;20483;-52
2021/05/21 01:47:18;;;;;;;3.37;1.40;;;;;;;;;;5099103;28;20456;-55
2021/05/21 01:49:56;;;;;;;10.00;1.40;;;;;;;;;;5098901;28;20458;-56
2021/05/21 01:52:24;;;;;;;2.20;1.10;;;;;;;;;;5082311;28;20585;-58
2021/05/21 01:54:51;;;;;;;5.50;1.33;;;;;;;;;;5078793;28;20452;-55
2021/05/21 01:57:19;;;;;;;4.30;1.53;;;;;;;;;;5078558;28;20457;-59
2021/05/21 01:59:46;;;;;;;2.53;1.20;;;;;;;;;;5079008;28;20487;-56
2021/05/21 02:02:13;;;;;;;7.90;1.37;;;;;;;;;;5078523;28;20437;-53
2021/05/21 02:04:45;;;;;;;3.63;1.40;;;;;;;;;;5078280;28;20892;-52
2021/05/21 02:07:13;;;;;;;2.57;1.20;;;;;;;;;;5078584;28;20467;-56
2021/05/21 02:09:45;;;;;;;7.20;1.10;;;;;;;;;;5078614;28;20449;-56
2021/05/21 02:12:14;;;;;;;4.07;1.20;;;;;;;;;;5078317;28;20468;-60
2021/05/21 02:14:41;;;;;;;3.03;1.27;;;;;;;;;;5077966;28;20436;-52
2021/05/21 02:17:07;;;;;;;3.40;1.17;;;;;;;;;;5078763;28;20449;-60
2021/05/21 02:19:34;;;;;;;3.47;1.30;;;;;;;;;;5078433;28;20464;-58
2021/05/21 02:22:01;;;;;;;4.37;1.13;;;;;;;;;;5078159;28;20457;-52
2021/05/21 02:24:30;;;;;;;2.80;1.33;;;;;;;;;;5078228;28;20523;-52
2021/05/21 02:27:08;;;;;;;4.43;1.10;;;;;;;;;;5078217;28;20449;-50
2021/05/21 02:29:35;;;;;;;4.30;1.10;;;;;;;;;;5078292;28;20457;-56
2021/05/21 02:32:01;;;;;;;2.90;1.10;;;;;;;;;;5078149;28;20457;-55
2021/05/21 02:34:30;;;;;;;7.90;1.20;;;;;;;;;;5078168;28;20483;-56
2021/05/21 02:36:57;;;;;;;2.33;1.07;;;;;;;;;;5077174;28;20449;-56
2021/05/21 02:39:24;;;;;;;2.23;1.00;;;;;;;;;;5077880;28;20460;-56
2021/05/21 02:42:13;;;;;;;2.23;1.03;;;;;;;;;;5077986;28;20448;-55
2021/05/21 02:44:40;;;;;;;3.50;1.20;;;;;;;;;;5077820;28;20519;-53
2021/05/21 02:47:07;;;;;;;2.93;1.23;;;;;;;;;;5077894;28;20456;-56
2021/05/21 02:49:48;;;;;;;3.30;1.23;;;;;;;;;;5078317;28;20469;-57
2021/05/21 02:52:17;;;;;;;3.70;1.40;;;;;;;;;;5077862;28;20499;-54
2021/05/21 02:54:43;;;;;;;6.03;1.43;;;;;;;;;;5078070;28;20466;-51
2021/05/21 02:57:38;;;;;;;4.77;1.43;;;;;;;;;;5077338;28;20449;-57
2021/05/21 03:00:06;;;;;;;4.90;2.40;;;;;;;;;;5087957;28;20499;-54
2021/05/21 03:02:33;;;;;;;3.73;1.30;;;;;;;;;;5092420;28;20519;-55
2021/05/21 03:05:28;;;;;;;7.63;1.70;;;;;;;;;;5096950;28;20514;-56
2021/05/21 03:07:55;;;;;;;5.70;1.40;;;;;;;;;;5097158;28;20452;-56
2021/05/21 03:10:23;;;;;;;3.27;1.10;;;;;;;;;;5097469;28;20464;-52
2021/05/21 03:15:55;;;;;;;6.23;1.30;;;;;;;;;;5093816;28;20457;-59
2021/05/21 03:18:24;;;;;;;3.63;1.60;;;;;;;;;;5077168;28;20479;-57
2021/05/21 03:21:17;;;;;;;3.10;1.20;;;;;;;;;;5076947;28;20549;-56
2021/05/21 03:23:45;;;;;;;3.60;1.47;;;;;;;;;;5077574;28;20465;-52
2021/05/21 03:26:12;;;;;;;3.10;1.00;;;;;;;;;;5077122;28;20504;-54
2021/05/21 03:28:40;;;;;;;3.73;1.10;;;;;;;;;;5077181;28;20446;-58
2021/05/21 03:31:09;;;;;;;4.50;1.43;;;;;;;;;;5077191;28;20460;-55
2021/05/21 03:33:37;;;;;;;6.97;1.63;;;;;;;;;;5077034;28;20440;-55
2021/05/21 03:36:18;;;;;;;3.40;1.73;;;;;;;;;;5077139;28;20472;-56
2021/05/21 03:38:46;;;;;;;2.67;1.30;;;;;;;;;;5076698;28;20441;-57
2021/05/21 03:41:16;;;;;;;2.03;1.00;;;;;;;;;;5077432;28;20500;-52
2021/05/21 03:43:53;;;;;;;4.23;1.30;;;;;;;;;;5077151;28;20468;-56
2021/05/21 03:46:20;;;;;;;2.77;1.17;;;;;;;;;;5089154;28;20488;-56
2021/05/21 03:48:47;;;;;;;2.20;0.90;;;;;;;;;;5095650;28;20464;-58
2021/05/21 03:51:43;;;;;;;4.00;1.27;;;;;;;;;;5096220;28;20471;-57
2021/05/21 03:54:10;;;;;;;5.03;1.57;;;;;;;;;;5081600;28;20497;-56
2021/05/21 03:56:37;;;;;;;7.80;2.27;;;;;;;;;;5076063;28;20450;-58
2021/05/21 03:59:36;;;;;;;4.30;1.67;;;;;;;;;;5075883;28;20456;-59
2021/05/21 04:02:03;;;;;;;3.00;1.23;;;;;;;;;;5086196;28;20476;-54
2021/05/21 04:04:30;;;;;;;3.77;1.23;;;;;;;;;;5096245;28;20677;-47
2021/05/21 04:07:18;;;;;;;3.20;1.23;;;;;;;;;;5098691;28;20456;-58
2021/05/21 04:09:45;;;;;;;3.90;2.33;;;;;;;;;;5115747;28;20447;-55
2021/05/21 04:12:12;;;;;;;2.93;1.63;;;;;;;;;;5109262;28;20447;-52
2021/05/21 04:14:45;;;;;;;3.83;1.23;;;;;;;;;;5096129;28;20451;-56
2021/05/21 04:17:15;;;;;;;6.63;1.13;;;;;;;;;;5095620;28;20650;-54
2021/05/21 04:19:42;;;;;;;3.50;1.30;;;;;;;;;;5095571;28;20456;-59
2021/05/21 04:22:28;;;;;;;2.37;1.30;;;;;;;;;;5095677;28;20456;-60
2021/05/21 04:24:54;;;;;;;5.03;1.43;;;;;;;;;;5095952;28;20487;-58
2021/05/21 04:27:21;;;;;;;6.70;1.20;;;;;;;;;;5096010;28;20516;-60
2021/05/21 04:29:59;;;;;;;3.33;1.27;;;;;;;;;;5095605;28;20456;-58
2021/05/21 04:32:26;;;;;;;3.37;1.60;;;;;;;;;;5094669;28;20500;-62
2021/05/21 04:34:54;;;;;;;3.70;1.17;;;;;;;;;;5096173;28;20490;-55
2021/05/21 04:40:25;;;;;;;3.70;1.20;;;;;;;;;;5077884;28;20506;-57
2021/05/21 04:42:51;;;;;;;4.40;1.73;;;;;;;;;;5075383;28;20457;-54
2021/05/21 04:45:20;;;;;;;4.90;1.53;;;;;;;;;;5075097;28;20472;-55
2021/05/21 04:47:48;;;;;;;3.00;1.30;;;;;;;;;;5057825;28;20467;-52
2021/05/21 04:50:23;;;;;;;4.23;1.83;;;;;;;;;;5075396;28;20499;-61
2021/05/21 04:52:57;;;;;;;7.77;1.40;;;;;;;;;;5074607;28;20465;-59
2021/05/21 04:55:36;;;;;;;3.93;1.77;;;;;;;;;;5086572;28;20444;-59
2021/05/21 04:58:14;;;;;;;3.50;1.20;;;;;;;;;;5072472;28;20444;-53
2021/05/21 05:00:41;;;;;;;3.60;1.20;;;;;;;;;;5090875;28;20460;-57
2021/05/21 05:03:28;;;;;;;3.30;1.23;;;;;;;;;;5099034;28;20509;-55
2021/05/21 05:05:59;;;;;;;3.60;1.37;;;;;;;;;;5099681;28;20486;-52
2021/05/21 05:08:41;;;;;;;4.10;1.27;;;;;;;;;;5100487;28;20521;-53
2021/05/21 05:11:08;;;;;;;5.30;1.30;;;;;;;;;;5102458;28;20437;-59
2021/05/21 05:16:42;;;;;;;4.13;1.90;;;;;;;;;;5081442;28;20491;-55
2021/05/21 05:19:14;;;;;;;2.40;1.10;;;;;;;;;;5079461;28;20639;-58
2021/05/21 05:21:48;;;;;;;4.00;1.40;;;;;;;;;;5078993;28;20456;-59
2021/05/21 05:24:19;;;;;;;7.70;2.30;;;;;;;;;;5079338;28;20470;-52
2021/05/21 05:26:47;;;;;;;2.90;1.40;;;;;;;;;;5078209;28;20461;-56
2021/05/21 05:29:36;;;;;;;3.83;1.20;;;;;;;;;;5077734;28;20464;-56
2021/05/21 05:32:07;;;;;;;2.67;1.30;;;;;;;;;;5080943;28;20452;-55
2021/05/21 05:34:37;;;;;;;15.53;11.90;;;;;;;;;;5089841;28;20445;-54
2021/05/21 05:37:05;;;;;;;14.47;5.63;;;;;;;;;;5075652;28;20516;-55
2021/05/21 05:39:32;;;;;;;7.40;2.70;;;;;;;;;;5060372;28;20641;-56
2021/05/21 05:42:02;;;;;;;3.93;1.80;;;;;;;;;;5057343;28;20473;-60
2021/05/21 05:44:30;;;;;;;3.43;1.70;;;;;;;;;;5058352;28;20528;-57
2021/05/21 05:47:17;;;;;;;3.90;1.73;;;;;;;;;;5083125;28;20524;-58
2021/05/21 05:49:57;;;;;;;4.50;2.00;;;;;;;;;;5060590;28;20454;-61
2021/05/21 05:52:29;;;;;;;4.03;1.57;;;;;;;;;;5070400;28;20481;-53
2021/05/21 05:55:03;;;;;;;5.30;1.30;;;;;;;;;;5059696;28;20433;-53
2021/05/21 05:57:37;;;;;;;3.90;1.20;;;;;;;;;;5077824;28;20474;-56
2021/05/21 06:00:05;;;;;;;6.90;1.50;;;;;;;;;;5078125;28;20445;-54
2021/05/21 06:02:35;;;;;;;5.07;1.10;;;;;;;;;;5077188;28;20441;-56
2021/05/21 06:05:39;;;;;;;4.10;1.23;;;;;;;;;;5077853;28;20476;-63
2021/05/21 06:08:10;;;;;;;3.10;1.33;;;;;;;;;;5078621;28;20443;-59
2021/05/21 06:10:39;;;;;;;3.80;1.13;;;;;;;;;;5078659;28;20519;-58
2021/05/21 06:13:11;;;;;;;2.87;1.37;;;;;;;;;;5077752;28;20467;-59
2021/05/21 06:15:39;;;;;;;2.37;1.17;;;;;;;;;;5078722;28;20429;-52
2021/05/21 06:18:13;;;;;;;6.63;1.30;;;;;;;;;;5078013;28;20465;-56
2021/05/21 06:20:40;;;;;;;8.77;1.70;;;;;;;;;;5076520;28;20449;-57
2021/05/21 06:23:13;;;;;;;4.77;1.23;;;;;;;;;;5077055;28;20449;-59
2021/05/21 06:26:11;;;;;;;4.77;1.33;;;;;;;;;;5076978;28;20481;-58
2021/05/21 06:28:54;;;;;;;3.10;1.20;;;;;;;;;;5077001;28;20449;-57
2021/05/21 06:31:28;;;;;;;5.93;1.70;;;;;;;;;;5077177;28;20452;-60
2021/05/21 06:34:00;;;;;;;3.33;1.87;;;;;;;;;;5077349;28;20465;-61
2021/05/21 06:36:31;;;;;;;3.00;1.27;;;;;;;;;;5077151;28;20468;-56
2021/05/21 06:39:10;;;;;;;2.53;1.13;;;;;;;;;;5076739;28;20453;-57
2021/05/21 06:41:39;;;;;;;8.93;1.90;;;;;;;;;;5077020;28;20444;-55
2021/05/21 06:44:06;;;;;;;3.53;1.70;;;;;;;;;;5077220;28;20493;-56
2021/05/21 06:47:02;;;;;;;5.50;1.30;;;;;;;;;;5077393;28;20524;-58
2021/05/21 06:55:41;;;;;;;5.30;1.47;;;;;;;;;;5077782;28;20439;-55
2021/05/21 06:58:26;;;;;;;7.80;1.80;;;;;;;;;;5076420;28;20462;-54
2021/05/21 07:00:59;;;;;;;4.67;1.20;;;;;;;;;;5076170;28;20547;-62
2021/05/21 07:03:51;;;;;;;7.00;1.67;;;;;;;;;;5076327;28;20465;-56
2021/05/21 07:06:18;;;;;;;6.33;1.97;;;;;;;;;;5076411;28;20496;-48
2021/05/21 07:08:45;;;;;;;7.10;1.63;;;;;;;;;;5076357;28;20449;-60
2021/05/21 07:14:20;;;;;;;4.23;1.40;;;;;;;;;;5077688;28;20416;-55
2021/05/21 07:16:52;;;;;;;5.67;2.00;;;;;;;;;;5075823;28;20515;-53
2021/05/21 07:19:20;;;;;;;6.10;2.03;;;;;;;;;;5077009;28;20441;-57
2021/05/21 07:21:47;;;;;;;3.30;1.60;;;;;;;;;;5058849;28;20437;-53
2021/05/21 07:24:16;;;;;;;5.60;1.80;;;;;;;;;;5056687;28;20450;-57
2021/05/21 07:26:54;;;;;;;6.37;1.70;;;;;;;;;;5071381;28;20437;-56
2021/05/21 07:29:24;;;;;;;6.03;2.33;;;;;;;;;;5076655;28;20486;-59
2021/05/21 07:31:59;;;;;;;5.50;2.27;;;;;;;;;;5076130;28;20522;-57
2021/05/21 07:34:34;;;;;;;8.40;1.30;;;;;;;;;;5076463;28;20528;-54
2021/05/21 07:37:01;;;;;;;10.27;2.00;;;;;;;;;;5075709;28;20467;-51
2021/05/21 07:39:28;;;;;;;4.20;1.83;;;;;;;;;;5076329;28;20524;-55
2021/05/21 07:41:57;;;;;;;4.87;1.50;;;;;;;;;;5076186;28;20441;-61
2021/05/21 07:44:29;;;;;;;6.37;1.67;;;;;;;;;;5075622;28;20529;-60
2021/05/21 07:46:57;;;;;;;5.00;1.30;;;;;;;;;;5075608;28;20460;-60
2021/05/21 07:49:26;;;;;;;5.13;1.73;;;;;;;;;;5074555;28;20475;-58
2021/05/21 07:52:07;;;;;;;4.30;1.40;;;;;;;;;;5074656;28;20493;-54
2021/05/21 07:54:34;;;;;;;4.80;2.00;;;;;;;;;;5058496;28;20477;-57
2021/05/21 07:57:02;;;;;;;4.10;1.73;;;;;;;;;;5074486;28;20498;-59
2021/05/21 07:59:33;;;;;;;4.53;1.40;;;;;;;;;;5074258;28;20433;-53
2021/05/21 08:02:01;;;;;;;6.70;1.53;;;;;;;;;;5075201;28;20445;-56
2021/05/21 08:04:29;;;;;;;10.13;4.67;;;;;;;;;;5074494;28;20465;-55
2021/05/21 08:07:29;;;;;;;3.83;1.67;;;;;;;;;;5074856;28;20523;-59
2021/05/21 08:10:01;;;;;;;4.87;1.53;;;;;;;;;;5092362;28;20525;-59
2021/05/21 08:12:29;;;;;;;5.67;1.60;;;;;;;;;;5095828;28;20518;-57
2021/05/21 08:14:56;;;;;;;4.40;1.47;;;;;;;;;;5094291;28;20452;-54
2021/05/21 08:17:23;;;;;;;7.37;1.73;;;;;;;;;;5094054;28;20440;-57
2021/05/21 08:19:51;;;;;;;6.23;1.40;;;;;;;;;;5094611;28;20439;-51
2021/05/21 08:22:30;;;;;;;5.37;1.30;;;;;;;;;;5109200;28;20479;-54
2021/05/21 08:25:05;;;;;;;5.20;1.97;;;;;;;;;;5101305;28;20491;-58
2021/05/21 08:27:31;;;;;;;7.00;1.60;;;;;;;;;;5094863;28;20534;-57
2021/05/21 08:29:59;;;;;;;7.90;1.90;;;;;;;;;;5094957;28;20452;-58
2021/05/21 08:32:28;;;;;;;6.10;2.40;;;;;;;;;;5094100;28;20460;-62
2021/05/21 08:34:55;;;;;;;8.07;2.20;;;;;;;;;;5087461;28;20469;-58
2021/05/21 08:37:22;;;;;;;5.87;1.70;;;;;;;;;;5074270;28;20437;-56
2021/05/21 08:40:22;;;;;;;8.13;1.80;;;;;;;;;;5073918;28;20751;-56
2021/05/21 08:42:57;;;;;;;8.50;1.67;;;;;;;;;;5073754;28;20445;-56
2021/05/21 08:45:29;;;;;;;11.13;2.53;;;;;;;;;;5072586;28;20535;-54
2021/05/21 08:47:56;;;;;;;6.40;2.60;;;;;;;;;;5073456;28;20460;-59
2021/05/21 08:50:24;;;;;;;11.13;1.60;;;;;;;;;;5072894;28;20683;-61
2021/05/21 08:52:51;;;;;;;14.13;2.80;;;;;;;;;;5074384;28;20632;-56
2021/05/21 08:55:18;;;;;;;6.70;2.80;;;;;;;;;;5073346;28;20437;-59
2021/05/21 09:00:44;;;;;;;5.53;1.63;;;;;;;;;;5081480;28;20475;-57
2021/05/21 09:03:22;;;;;;;10.03;2.43;;;;;;;;;;5094310;28;20455;-60
2021/05/21 09:06:13;;;;;;;5.43;1.80;;;;;;;;;;5095144;28;20472;-53
2021/05/21 09:08:43;;;;;;;15.60;2.30;;;;;;;;;;5071822;28;20480;-56
2021/05/21 09:11:41;;;;;;;4.93;1.63;;;;;;;;;;5075784;28;20457;-55
2021/05/21 09:14:08;;;;;;;7.13;2.07;;;;;;;;;;5091004;28;20480;-49
2021/05/21 09:16:38;;;;;;;6.70;1.93;;;;;;;;;;5094021;28;20586;-57
2021/05/21 09:19:13;;;;;;;6.37;2.50;;;;;;;;;;5092899;28;20464;-55
2021/05/21 09:21:48;;;;;;;6.80;1.63;;;;;;;;;;5094103;28;20464;-59
2021/05/21 09:24:24;;;;;;;6.70;1.93;;;;;;;;;;5094411;28;20459;-58
2021/05/21 09:26:52;;;;;;;8.50;2.23;;;;;;;;;;5094056;28;20488;-58
2021/05/21 09:29:35;;;;;;;5.07;1.60;;;;;;;;;;5093476;28;20456;-60
2021/05/21 09:32:15;;;;;;;8.07;1.80;;;;;;;;;;5090411;28;20479;-60
2021/05/21 09:34:47;;;;;;;5.80;1.73;;;;;;;;;;5093122;28;20577;-55
2021/05/21 09:37:21;;;;;;;7.97;3.10;;;;;;;;;;5093191;28;20448;-58
2021/05/21 09:40:03;;;;;;;9.07;2.43;;;;;;;;;;5093365;28;20435;-54
2021/05/21 09:42:33;;;;;;;5.30;1.90;;;;;;;;;;5094135;28;20470;-55
2021/05/21 09:45:17;;;;;;;8.07;2.10;;;;;;;;;;5096495;28;20456;-56
2021/05/21 09:51:07;;;;;;;5.40;3.03;;;;;;;;;;5097667;28;20410;-60
2021/05/21 09:53:35;;;;;;;5.63;2.10;;;;;;;;;;5110233;28;20439;-57
2021/05/21 09:56:02;;;;;;;6.17;1.67;;;;;;;;;;5118188;28;20453;-61
2021/05/21 09:58:31;;;;;;;9.10;2.10;;;;;;;;;;5117522;28;20443;-57
2021/05/21 10:01:23;;;;;;;4.30;1.80;;;;;;;;;;5109294;28;20474;-56
2021/05/21 10:03:52;;;;;;;5.63;1.43;;;;;;;;;;5086945;28;20497;-61
2021/05/21 10:09:07;;;;;;;8.53;1.53;;;;;;;;;;5096240;28;20452;-59
2021/05/21 10:11:33;;;;;;;10.57;1.70;;;;;;;;;;5096281;28;20452;-58
2021/05/21 10:14:02;;;;;;;8.37;2.43;;;;;;;;;;5096909;28;20472;-62
2021/05/21 10:16:29;;;;;;;4.73;2.40;;;;;;;;;;5096283;28;20448;-59
2021/05/21 10:19:02;;;;;;;6.23;2.30;;;;;;;;;;5097959;28;20452;-60
2021/05/21 10:21:31;;;;;;;5.10;1.60;;;;;;;;;;5096512;28;20483;-57
2021/05/21 10:24:03;;;;;;;9.13;2.30;;;;;;;;;;5098264;28;20444;-61
2021/05/21 10:26:46;;;;;;;6.43;1.60;;;;;;;;;;5096710;28;20476;-58
2021/05/21 10:29:13;;;;;;;7.30;2.37;;;;;;;;;;5096878;28;20460;-60
2021/05/21 10:31:40;;;;;;;8.60;2.40;;;;;;;;;;5096153;28;20467;-51
2021/05/21 10:34:31;;;;;;;6.20;2.20;;;;;;;;;;5075600;28;20457;-59
2021/05/21 10:37:24;;;;;;;8.87;2.17;;;;;;;;;;5072886;28;20455;-59
2021/05/21 10:39:59;;;;;;;9.20;2.50;;;;;;;;;;5074897;28;20467;-61
2021/05/21 10:42:26;;;;;;;6.93;2.77;;;;;;;;;;5081347;28;20448;-60
2021/05/21 10:45:07;;;;;;;5.57;1.60;;;;;;;;;;5096818;28;20433;-53
2021/05/21 10:47:50;;;;;;;6.00;2.10;;;;;;;;;;5096298;28;20417;-60
2021/05/21 10:50:20;;;;;;;8.70;2.30;;;;;;;;;;5094795;28;20452;-58
2021/05/21 10:52:56;;;;;;;7.90;2.33;;;;;;;;;;5094380;28;20451;-56
2021/05/21 10:55:44;;;;;;;13.00;2.10;;;;;;;;;;5095711;28;20575;-57
2021/05/21 10:58:29;;;;;;;10.07;2.30;;;;;;;;;;5089237;28;20449;-59
2021/05/21 11:01:19;;;;;;;6.83;2.37;;;;;;;;;;5081795;28;20516;-57
2021/05/21 11:04:03;;;;;;;9.10;2.57;;;;;;;;;;5094602;28;20463;-55
2021/05/21 11:06:31;;;;;;;11.33;3.43;;;;;;;;;;5094631;28;20483;-61
2021/05/21 11:09:14;;;;;;;11.20;2.37;;;;;;;;;;5094388;28;20463;-59
2021/05/21 11:11:45;;;;;;;11.17;3.80;;;;;;;;;;5093934;28;20468;-52
2021/05/21 11:14:36;;;;;;;7.47;2.43;;;;;;;;;;5093800;28;20445;-60
2021/05/21 11:17:10;;;;;;;7.67;1.80;;;;;;;;;;5093931;28;20424;-61
2021/05/21 11:20:08;;;;;;;10.57;2.67;;;;;;;;;;5089438;28;20445;-56
2021/05/21 11:22:37;;;;;;;6.83;1.67;;;;;;;;;;5073555;28;20545;-57
2021/05/21 11:25:06;;;;;;;8.50;2.30;;;;;;;;;;5081089;28;20472;-59
2021/05/21 11:27:44;;;;;;;4.43;1.30;;;;;;;;;;5094156;28;20551;-52
2021/05/21 11:30:13;;;;;;;4.60;2.60;;;;;;;;;;5091798;28;20491;-62
2021/05/21 11:32:40;;;;;;;4.33;2.77;;;;;;;;;;5109255;28;20459;-60
2021/05/21 11:35:15;;;;;;;6.60;2.10;;;;;;;;;;5114611;28;20473;-57
2021/05/21 11:37:42;;;;;;;7.13;2.10;;;;;;;;;;5103598;28;20467;-60
2021/05/21 11:40:22;;;;;;;6.40;2.13;;;;;;;;;;5079492;28;20460;-61
2021/05/21 11:43:30;;;;;;;7.57;2.07;;;;;;;;;;5075574;28;20473;-57
2021/05/21 11:46:01;;;;;;;8.00;1.73;;;;;;;;;;5093129;28;20479;-53
2021/05/21 11:48:32;;;;;;;6.77;2.73;;;;;;;;;;5093681;28;20460;-58
2021/05/21 11:51:13;;;;;;;7.53;2.70;;;;;;;;;;5093024;28;20478;-56
2021/05/21 11:53:47;;;;;;;7.03;2.27;;;;;;;;;;5093741;28;20475;-58
2021/05/21 11:56:33;;;;;;;8.20;2.80;;;;;;;;;;5073878;28;20535;-55
2021/05/21 11:59:30;;;;;;;7.50;2.60;;;;;;;;;;5061823;28;20475;-55
2021/05/21 12:01:57;;;;;;;12.03;3.37;;;;;;;;;;5072393;28;20717;-56
2021/05/21 12:04:40;;;;;;;4.50;1.63;;;;;;;;;;5073515;28;20524;-57
2021/05/21 12:07:08;;;;;;;7.60;2.13;;;;;;;;;;5093330;28;20573;-56
2021/05/21 12:09:34;;;;;;;6.93;2.70;;;;;;;;;;5093116;28;20459;-54
2021/05/21 12:12:03;;;;;;;8.03;2.27;;;;;;;;;;5093854;28;20468;-56
2021/05/21 12:14:35;;;;;;;7.33;2.00;;;;;;;;;;5093141;28;20474;-60
2021/05/21 12:17:02;;;;;;;8.13;2.30;;;;;;;;;;5092842;28;20507;-57
2021/05/21 12:20:00;;;;;;;5.53;2.10;;;;;;;;;;5093135;28;20436;-58
2021/05/21 12:22:26;;;;;;;7.10;2.00;;;;;;;;;;5073866;28;20738;-59
2021/05/21 12:24:55;;;;;;;7.90;1.80;;;;;;;;;;5088710;28;20443;-59
2021/05/21 12:33:40;;;;;;;8.00;2.20;;;;;;;;;;5094058;28;20442;-60
2021/05/21 12:36:23;;;;;;;9.00;1.97;;;;;;;;;;5094526;28;20436;-56
2021/05/21 12:38:52;;;;;;;9.40;2.07;;;;;;;;;;5092915;28;20577;-58
2021/05/21 12:41:19;;;;;;;10.60;1.80;;;;;;;;;;5093650;28;20867;-59
2021/05/21 12:44:17;;;;;;;5.00;1.73;;;;;;;;;;5093044;28;20456;-60
2021/05/21 12:47:28;;;;;;;7.23;2.57;;;;;;;;;;5092139;28;20483;-57
2021/05/21 12:50:05;;;;;;;9.97;1.97;;;;;;;;;;5086289;28;20459;-58
2021/05/21 12:52:32;;;;;;;8.00;3.10;;;;;;;;;;5093511;28;20467;-57
2021/05/21 12:55:01;;;;;;;10.83;2.23;;;;;;;;;;5093692;28;20436;-56
2021/05/21 12:57:36;;;;;;;8.63;2.60;;;;;;;;;;5093297;28;20456;-57
2021/05/21 13:00:05;;;;;;;5.57;1.87;;;;;;;;;;5093457;28;20452;-58
2021/05/21 13:02:40;;;;;;;11.97;2.83;;;;;;;;;;5093356;28;20866;-55
2021/05/21 13:05:09;;;;;;;5.87;2.10;;;;;;;;;;5092792;28;20499;-55
2021/05/21 13:07:38;;;;;;;11.30;2.60;;;;;;;;;;5092720;28;20556;-59
2021/05/21 13:10:06;;;;;;;11.17;2.90;;;;;;;;;;5093445;28;20467;-58
2021/05/21 13:12:40;;;;;;;7.40;2.27;;;;;;;;;;5092462;28;20508;-55
2021/05/21 13:15:10;;;;;;;8.73;2.20;;;;;;;;;;5094733;28;20470;-56
2021/05/21 13:17:44;;;;;;;5.10;1.70;;;;;;;;;;5092850;28;20472;-55
2021/05/21 13:20:15;;;;;;;9.37;2.53;;;;;;;;;;5091962;28;20511;-58
2021/05/21 13:22:43;;;;;;;13.17;3.00;;;;;;;;;;5097974;28;20457;-59
2021/05/21 13:25:29;;;;;;;6.27;2.33;;;;;;;;;;5096903;28;20488;-54
2021/05/21 13:27:59;;;;;;;9.83;2.57;;;;;;;;;;5086902;28;20436;-55
2021/05/21 13:30:27;;;;;;;8.37;2.83;;;;;;;;;;5097362;28;20440;-61
2021/05/21 13:33:04;;;;;;;10.73;2.97;;;;;;;;;;5092529;28;20889;-57
2021/05/21 13:35:33;;;;;;;6.37;1.80;;;;;;;;;;5086206;28;20449;-56
2021/05/21 13:38:00;;;;;;;5.30;2.20;;;;;;;;;;5096531;28;20515;-57
2021/05/21 13:43:33;;;;;;;9.10;2.77;;;;;;;;;;5094828;28;20458;-59
2021/05/21 13:46:03;;;;;;;7.40;2.07;;;;;;;;;;5096830;28;20484;-50
2021/05/21 13:48:33;;;;;;;9.70;2.43;;;;;;;;;;5097059;28;20455;-58
2021/05/21 13:50:59;;;;;;;6.40;1.83;;;;;;;;;;5096104;28;20470;-57
2021/05/21 13:53:26;;;;;;;9.57;3.07;;;;;;;;;;5096292;28;20634;-60
2021/05/21 13:56:02;;;;;;;16.13;3.20;;;;;;;;;;5095919;28;20459;-54
2021/05/21 13:58:56;;;;;;;8.17;2.80;;;;;;;;;;5094792;28;20748;-58
2021/05/21 14:01:34;;;;;;;8.80;3.63;;;;;;;;;;5096036;28;20448;-61
2021/05/21 14:04:02;;;;;;;7.53;2.70;;;;;;;;;;5096607;28;20447;-61
2021/05/21 14:06:29;;;;;;;7.80;1.60;;;;;;;;;;5095630;28;20542;-56
2021/05/21 14:09:08;;;;;;;7.70;2.63;;;;;;;;;;5095672;28;20456;-58
2021/05/21 14:11:36;;;;;;;7.27;2.30;;;;;;;;;;5095927;28;20463;-52
2021/05/21 14:14:03;;;;;;;7.83;1.80;;;;;;;;;;5095960;28;20452;-54
2021/05/21 14:16:59;;;;;;;10.30;2.00;;;;;;;;;;5078297;28;20516;-56
2021/05/21 14:19:27;;;;;;;4.10;2.03;;;;;;;;;;5077655;28;20448;-53
2021/05/21 14:21:57;;;;;;;10.73;3.17;;;;;;;;;;5076992;28;20464;-59
2021/05/21 14:24:31;;;;;;;10.30;2.80;;;;;;;;;;5102557;28;20459;-56
2021/05/21 14:26:58;;;;;;;12.77;2.97;;;;;;;;;;5116908;28;20485;-55
2021/05/21 14:29:25;;;;;;;6.97;2.03;;;;;;;;;;5116769;28;20438;-58
2021/05/21 14:32:16;;;;;;;8.63;2.30;;;;;;;;;;5116477;28;20459;-55
2021/05/21 14:34:44;;;;;;;6.77;2.00;;;;;;;;;;5116342;28;20442;-58
2021/05/21 14:37:11;;;;;;;5.60;2.03;;;;;;;;;;5116880;28;20565;-52
2021/05/21 14:40:22;;;;;;;11.83;3.03;;;;;;;;;;5116569;28;20459;-59
2021/05/21 14:42:51;;;;;;;7.00;1.97;;;;;;;;;;5085043;28;20511;-59
2021/05/21 14:45:21;;;;;;;6.43;2.47;;;;;;;;;;5076352;28;20540;-62
2021/05/21 14:47:49;;;;;;;5.77;1.60;;;;;;;;;;5079876;28;20586;-60
2021/05/21 14:50:18;;;;;;;5.00;1.40;;;;;;;;;;5091431;28;20464;-65
2021/05/21 14:52:49;;;;;;;13.37;2.60;;;;;;;;;;5083758;28;20464;-58
2021/05/21 14:58:20;;;;;;;6.27;2.50;;;;;;;;;;5085315;28;20540;-63
2021/05/21 15:01:00;;;;;;;7.70;2.73;;;;;;;;;;5080528;28;20541;-58
2021/05/21 15:06:22;;;;;;;9.70;2.97;;;;;;;;;;5099654;28;20495;-61
2021/05/21 15:12:02;;;;;;;8.83;2.50;;;;;;;;;;5091350;28;20431;-50
2021/05/21 15:14:37;;;;;;;10.77;2.90;;;;;;;;;;5095006;28;20439;-61
2021/05/21 15:17:15;;;;;;;8.10;2.20;;;;;;;;;;5080761;28;20473;-59
2021/05/21 15:25:33;;;;;;;8.23;1.90;;;;;;;;;;5078473;28;20448;-59
2021/05/21 15:28:01;;;;;;;11.13;3.50;;;;;;;;;;5086828;28;20482;-58
2021/05/21 15:30:42;;;;;;;9.37;1.50;;;;;;;;;;5080224;28;20444;-56
2021/05/21 15:36:13;;;;;;;7.23;2.17;;;;;;;;;;5096645;28;20551;-56
2021/05/21 15:38:47;;;;;;;10.57;2.37;;;;;;;;;;5095939;28;20475;-57
2021/05/21 15:41:30;;;;;;;6.23;2.03;;;;;;;;;;5095191;28;20482;-59
2021/05/21 15:46:46;;;;;;;8.73;1.67;;;;;;;;;;5099010;28;20474;-54
2021/05/21 15:49:25;;;;;;;8.07;2.50;;;;;;;;;;5093224;28;20520;-56
2021/05/21 15:52:06;;;;;;;6.07;2.10;;;;;;;;;;5097725;28;20491;-57
2021/05/21 15:55:14;;;;;;;6.77;1.90;;;;;;;;;;5092627;28;20474;-60
2021/05/21 15:57:48;;;;;;;8.10;2.10;;;;;;;;;;5092347;28;20451;-60
2021/05/21 16:00:34;;;;;;;5.43;1.93;;;;;;;;;;5092982;28;20561;-51
2021/05/21 16:03:06;;;;;;;7.23;2.10;;;;;;;;;;5090552;28;20454;-57
2021/05/21 16:05:38;;;;;;;8.27;1.90;;;;;;;;;;5093233;28;20487;-52
2021/05/21 16:08:07;;;;;;;5.30;2.30;;;;;;;;;;5089886;28;20453;-56
2021/05/21 16:10:37;;;;;;;8.93;1.77;;;;;;;;;;5073314;28;20483;-63
2021/05/21 16:13:05;;;;;;;6.67;1.80;;;;;;;;;;5090860;28;20475;-60
2021/05/21 16:18:38;;;;;;;8.37;2.33;;;;;;;;;;5081748;28;20411;-57